Time;durP1;ratioP1;P1;durP2;ratioP2;P2;SDS_P1;SDS_P2;PMS_P1;PMS_P2;Temp;Humidity;BMP_temperature;BMP_pressure;BME280_temperature;BME280_humidity;BME280_pressure;Samples;Min_cycle;Max_cycle;Signal;HPM_P1;HPM_P2
2021/06/23 00:02:15;;;;;;;5.53;3.70;;;14.00;94.20;;;;;;5032998;28;20021;-67
2021/06/23 00:04:42;;;;;;;5.45;3.40;;;14.00;94.20;;;;;;5032792;28;20032;-67
2021/06/23 00:07:07;;;;;;;6.97;3.45;;;14.00;94.20;;;;;;5034202;28;20021;-69
2021/06/23 00:09:33;;;;;;;6.45;3.88;;;14.00;94.20;;;;;;5035138;28;20024;-67
2021/06/23 00:11:58;;;;;;;7.82;4.50;;;14.00;94.20;;;;;;5034003;28;20072;-67
2021/06/23 00:14:24;;;;;;;6.78;4.13;;;14.00;94.20;;;;;;5034933;28;20029;-67
2021/06/23 00:16:50;;;;;;;6.30;3.72;;;14.00;94.20;;;;;;5033035;28;20017;-69
2021/06/23 00:19:16;;;;;;;5.90;3.72;;;13.90;94.30;;;;;;5032762;28;20117;-67
2021/06/23 00:21:41;;;;;;;5.20;3.58;;;14.00;94.30;;;;;;5032538;28;20108;-69
2021/06/23 00:24:07;;;;;;;4.35;3.47;;;14.00;94.30;;;;;;5034574;28;20529;-69
2021/06/23 00:26:34;;;;;;;3.97;3.58;;;13.90;94.40;;;;;;5036261;28;20111;-67
2021/06/23 00:29:02;;;;;;;9.90;5.75;;;13.90;94.50;;;;;;5033883;28;20022;-67
2021/06/23 00:31:28;;;;;;;10.10;5.10;;;13.80;94.70;;;;;;5033337;28;20022;-67
2021/06/23 00:33:54;;;;;;;6.97;4.75;;;13.80;94.80;;;;;;5032892;28;20448;-69
2021/06/23 00:36:20;;;;;;;7.22;4.25;;;13.70;94.90;;;;;;5034016;28;20021;-69
2021/06/23 00:38:46;;;;;;;4.95;4.20;;;13.70;94.90;;;;;;5035102;28;20024;-69
2021/06/23 00:41:17;;;;;;;6.68;4.20;;;13.70;95.00;;;;;;5033358;28;20037;-69
2021/06/23 00:43:43;;;;;;;5.97;4.10;;;13.70;95.00;;;;;;5032201;28;20025;-69
2021/06/23 00:46:10;;;;;;;8.85;5.45;;;13.70;95.10;;;;;;5036525;28;20385;-67
2021/06/23 00:48:35;;;;;;;7.03;5.55;;;13.60;95.20;;;;;;5032391;28;20017;-69
2021/06/23 00:51:01;;;;;;;8.60;5.30;;;13.60;95.30;;;;;;5039682;28;20024;-69
2021/06/23 00:53:28;;;;;;;8.27;4.85;;;13.50;95.40;;;;;;5037594;28;20024;-69
2021/06/23 00:55:55;;;;;;;8.32;4.65;;;13.50;95.50;;;;;;5037787;28;20056;-69
2021/06/23 00:58:21;;;;;;;6.78;4.82;;;13.50;95.50;;;;;;5036956;28;20021;-69
2021/06/23 01:00:47;;;;;;;6.18;4.40;;;13.50;95.50;;;;;;5037198;28;20021;-68
2021/06/23 01:03:13;;;;;;;5.13;4.00;;;13.40;95.60;;;;;;5035891;28;20045;-68
2021/06/23 01:05:39;;;;;;;5.38;3.95;;;13.50;95.60;;;;;;5034408;28;20103;-69
2021/06/23 01:08:07;;;;;;;7.82;3.70;;;13.50;95.60;;;;;;5039273;28;20017;-68
2021/06/23 01:10:34;;;;;;;4.68;3.45;;;13.50;95.50;;;;;;5036274;28;20014;-68
2021/06/23 01:13:25;;;;;;;5.50;3.50;;;13.50;95.60;;;;;;5038738;28;20028;-68
2021/06/23 01:15:53;;;;;;;6.43;3.22;;;13.60;95.50;;;;;;5036439;28;20021;-68
2021/06/23 01:18:19;;;;;;;6.55;3.97;;;13.50;95.60;;;;;;5036856;28;20397;-68
2021/06/23 01:20:46;;;;;;;5.70;4.13;;;13.40;95.60;;;;;;5035569;28;20486;-68
2021/06/23 01:23:14;;;;;;;6.10;4.10;;;13.50;95.70;;;;;;5034035;28;20071;-70
2021/06/23 01:25:40;;;;;;;4.80;3.72;;;13.40;95.70;;;;;;5037305;28;20480;-68
2021/06/23 01:28:06;;;;;;;7.57;4.47;;;13.50;95.80;;;;;;5039748;28;20036;-69
2021/06/23 01:30:33;;;;;;;6.57;4.25;;;13.50;95.80;;;;;;5037564;28;20013;-69
2021/06/23 01:32:59;;;;;;;4.05;3.65;;;13.40;95.80;;;;;;5036618;28;20029;-68
2021/06/23 01:35:25;;;;;;;7.50;4.22;;;13.50;95.80;;;;;;5043148;28;20492;-69
2021/06/23 01:37:51;;;;;;;9.63;4.43;;;13.50;95.80;;;;;;5036748;28;20021;-68
2021/06/23 01:40:17;;;;;;;5.18;3.78;;;13.50;95.90;;;;;;5036504;28;20112;-68
2021/06/23 01:42:42;;;;;;;6.68;3.70;;;13.40;95.90;;;;;;5040040;28;20021;-68
2021/06/23 01:45:08;;;;;;;6.35;3.53;;;13.40;96.00;;;;;;5034272;28;20029;-68
2021/06/23 01:47:34;;;;;;;6.45;3.67;;;13.40;96.00;;;;;;5035338;28;20030;-68
2021/06/23 01:50:00;;;;;;;6.95;4.10;;;13.40;96.10;;;;;;5034692;28;20087;-70
2021/06/23 01:52:26;;;;;;;6.57;4.20;;;13.40;96.10;;;;;;5039191;28;20037;-68
2021/06/23 01:54:53;;;;;;;6.13;3.67;;;13.40;96.20;;;;;;5036373;28;20009;-70
2021/06/23 01:57:19;;;;;;;5.47;3.53;;;13.40;96.20;;;;;;5035143;28;20021;-68
2021/06/23 01:59:46;;;;;;;6.88;3.72;;;13.40;96.10;;;;;;5036231;28;20064;-68
2021/06/23 02:02:28;;;;;;;5.70;3.17;;;13.50;96.20;;;;;;5035280;28;20393;-68
2021/06/23 02:05:13;;;;;;;7.85;4.10;;;13.40;96.10;;;;;;5033451;28;20028;-68
2021/06/23 02:08:02;;;;;;;4.50;3.40;;;13.40;96.20;;;;;;5035718;28;20083;-68
2021/06/23 02:10:50;;;;;;;6.85;3.47;;;13.50;96.20;;;;;;5030828;28;20040;-68
2021/06/23 02:13:37;;;;;;;4.82;3.17;;;13.40;96.20;;;;;;5037818;28;20028;-68
2021/06/23 02:16:09;;;;;;;4.65;3.30;;;13.50;96.20;;;;;;5036130;28;20017;-68
2021/06/23 02:18:36;;;;;;;6.40;3.35;;;13.50;96.20;;;;;;5034843;28;20037;-68
2021/06/23 02:21:03;;;;;;;5.25;3.20;;;13.40;96.20;;;;;;5034730;28;20022;-68
2021/06/23 02:23:29;;;;;;;5.13;3.80;;;13.40;96.20;;;;;;5033823;28;20477;-68
2021/06/23 02:25:56;;;;;;;5.28;3.20;;;13.40;96.20;;;;;;5036287;28;20030;-68
2021/06/23 02:28:22;;;;;;;6.15;3.67;;;13.40;96.30;;;;;;5038076;28;20423;-68
2021/06/23 02:30:49;;;;;;;7.35;2.83;;;13.40;96.30;;;;;;5034054;28;20489;-70
2021/06/23 02:33:15;;;;;;;5.03;3.30;;;13.40;96.30;;;;;;5036627;28;20076;-70
2021/06/23 02:35:41;;;;;;;4.97;3.22;;;13.40;96.40;;;;;;5035987;28;20021;-70
2021/06/23 02:38:07;;;;;;;7.00;3.85;;;13.40;96.40;;;;;;5035694;28;20436;-68
2021/06/23 02:40:34;;;;;;;4.28;3.17;;;13.40;96.40;;;;;;5036697;28;20026;-70
2021/06/23 02:43:00;;;;;;;4.10;3.15;;;13.40;96.40;;;;;;5034828;28;20025;-68
2021/06/23 02:45:27;;;;;;;4.13;3.28;;;13.40;96.40;;;;;;5034893;28;20500;-68
2021/06/23 02:47:54;;;;;;;8.23;3.03;;;13.40;96.50;;;;;;5033821;28;20477;-69
2021/06/23 02:50:20;;;;;;;4.72;3.03;;;13.30;96.40;;;;;;5032323;28;20103;-68
2021/06/23 02:52:46;;;;;;;4.93;3.28;;;13.30;96.50;;;;;;5038237;28;20163;-68
2021/06/23 02:55:19;;;;;;;4.63;3.13;;;13.30;96.50;;;;;;5035571;28;20532;-68
2021/06/23 02:57:45;;;;;;;4.57;3.30;;;13.40;96.50;;;;;;5036305;28;20032;-68
2021/06/23 03:00:11;;;;;;;3.83;3.33;;;13.30;96.50;;;;;;5034453;28;20524;-68
2021/06/23 03:02:37;;;;;;;4.15;2.58;;;13.30;96.50;;;;;;5034823;28;20026;-68
2021/06/23 03:05:03;;;;;;;4.28;3.10;;;13.40;96.50;;;;;;5033701;28;20017;-69
2021/06/23 03:07:28;;;;;;;5.05;3.45;;;13.40;96.50;;;;;;5033123;28;20057;-69
2021/06/23 03:10:05;;;;;;;7.43;3.55;;;13.40;96.40;;;;;;5039835;28;20099;-70
2021/06/23 03:12:31;;;;;;;6.82;3.35;;;13.40;96.40;;;;;;5034343;28;20092;-69
2021/06/23 03:14:57;;;;;;;4.40;3.22;;;13.40;96.40;;;;;;5036343;28;20117;-68
2021/06/23 03:17:22;;;;;;;5.18;3.47;;;13.30;96.40;;;;;;5034425;28;20037;-69
2021/06/23 03:19:48;;;;;;;5.70;3.20;;;13.30;96.40;;;;;;5034290;28;20057;-68
2021/06/23 03:22:13;;;;;;;5.45;3.00;;;13.30;96.40;;;;;;5033270;28;20109;-70
2021/06/23 03:24:39;;;;;;;3.65;2.83;;;13.30;96.40;;;;;;5034702;28;20024;-69
2021/06/23 03:27:05;;;;;;;6.57;3.35;;;13.30;96.40;;;;;;5035744;28;20032;-70
2021/06/23 03:29:33;;;;;;;4.38;3.15;;;13.30;96.50;;;;;;5034782;28;20052;-69
2021/06/23 03:32:00;;;;;;;6.57;3.45;;;13.30;96.50;;;;;;5034259;28;20536;-69
2021/06/23 03:34:27;;;;;;;4.68;3.95;;;13.30;96.50;;;;;;5033889;28;20714;-68
2021/06/23 03:36:53;;;;;;;7.35;3.80;;;13.30;96.60;;;;;;5035304;28;20022;-69
2021/06/23 03:39:20;;;;;;;8.10;3.90;;;13.30;96.60;;;;;;5036189;28;20109;-69
2021/06/23 03:41:46;;;;;;;6.35;3.63;;;13.20;96.60;;;;;;5033865;28;20071;-69
2021/06/23 03:44:11;;;;;;;5.55;3.88;;;13.30;96.60;;;;;;5034849;28;20029;-69
2021/06/23 03:46:37;;;;;;;5.70;4.03;;;13.20;96.60;;;;;;5033248;28;20061;-69
2021/06/23 03:49:03;;;;;;;4.80;3.97;;;13.20;96.60;;;;;;5033079;28;20049;-69
2021/06/23 03:51:28;;;;;;;5.85;3.53;;;13.20;96.60;;;;;;5033746;28;20469;-69
2021/06/23 03:53:54;;;;;;;3.47;3.10;;;13.30;96.60;;;;;;5035253;28;20021;-69
2021/06/23 03:56:19;;;;;;;5.57;3.97;;;13.30;96.60;;;;;;5036173;28;20525;-69
2021/06/23 03:58:45;;;;;;;5.57;3.83;;;13.30;96.60;;;;;;5033778;28;20022;-69
2021/06/23 04:01:11;;;;;;;5.63;3.70;;;13.30;96.60;;;;;;5034537;28;20021;-69
2021/06/23 04:03:38;;;;;;;5.03;3.65;;;13.30;96.60;;;;;;5033098;28;20087;-69
2021/06/23 04:06:04;;;;;;;5.60;4.05;;;13.30;96.60;;;;;;5031651;28;20441;-69
2021/06/23 04:08:29;;;;;;;4.57;3.33;;;13.30;96.60;;;;;;5064101;28;20557;-70
2021/06/23 04:10:55;;;;;;;5.97;3.70;;;13.30;96.60;;;;;;5035094;28;20018;-70
2021/06/23 04:13:21;;;;;;;8.80;3.88;;;13.30;96.60;;;;;;5035436;28;20026;-70
2021/06/23 04:15:47;;;;;;;5.18;3.72;;;13.30;96.60;;;;;;5032565;28;20401;-68
2021/06/23 04:18:12;;;;;;;4.15;3.70;;;13.30;96.50;;;;;;5034288;28;22764;-68
2021/06/23 04:20:38;;;;;;;4.30;3.10;;;13.30;96.50;;;;;;5033004;28;20118;-69
2021/06/23 04:23:03;;;;;;;4.63;3.92;;;13.30;96.50;;;;;;5032702;28;20073;-70
2021/06/23 04:25:29;;;;;;;3.97;3.35;;;13.30;96.50;;;;;;5038207;28;20063;-70
2021/06/23 04:27:55;;;;;;;6.15;3.65;;;13.30;96.50;;;;;;5039042;28;20028;-70
2021/06/23 04:30:21;;;;;;;5.72;3.60;;;13.30;96.50;;;;;;5038407;28;20014;-68
2021/06/23 04:32:46;;;;;;;4.75;3.42;;;13.30;96.50;;;;;;5037675;28;20057;-68
2021/06/23 04:35:12;;;;;;;4.50;3.35;;;13.30;96.60;;;;;;5037791;28;20100;-70
2021/06/23 04:37:41;;;;;;;4.53;3.78;;;13.30;96.80;;;;;;5040195;28;20064;-68
2021/06/23 04:40:10;;;;;;;6.72;3.55;;;13.20;96.60;;;;;;5038053;28;20079;-69
2021/06/23 04:42:37;;;;;;;9.07;3.70;;;13.30;96.60;;;;;;5038832;28;20033;-70
2021/06/23 04:45:05;;;;;;;5.07;3.60;;;13.30;96.60;;;;;;5035653;28;20024;-70
2021/06/23 04:47:31;;;;;;;5.70;2.85;;;13.30;96.50;;;;;;5036912;28;20043;-69
2021/06/23 04:49:57;;;;;;;5.25;3.33;;;13.30;96.50;;;;;;5036077;28;20528;-70
2021/06/23 04:52:22;;;;;;;6.78;3.55;;;13.40;96.50;;;;;;5037335;28;20485;-69
2021/06/23 04:54:49;;;;;;;5.15;3.08;;;13.40;96.50;;;;;;5038396;28;20030;-70
2021/06/23 04:57:15;;;;;;;6.32;3.03;;;13.40;96.40;;;;;;5037631;28;20021;-70
2021/06/23 04:59:41;;;;;;;7.60;4.13;;;13.40;96.40;;;;;;5036899;28;20021;-69
2021/06/23 05:02:06;;;;;;;4.60;3.20;;;13.40;96.40;;;;;;5047941;28;20029;-70
2021/06/23 05:04:33;;;;;;;4.60;3.00;;;13.50;96.40;;;;;;5056001;28;20107;-69
2021/06/23 05:07:02;;;;;;;4.55;3.40;;;13.40;96.40;;;;;;5055732;28;20029;-71
2021/06/23 05:09:28;;;;;;;7.68;3.33;;;13.40;96.40;;;;;;5056349;28;20029;-69
2021/06/23 05:11:53;;;;;;;3.80;2.90;;;13.50;96.40;;;;;;5056052;28;20492;-69
2021/06/23 05:14:19;;;;;;;5.32;2.50;;;13.50;96.40;;;;;;5055768;28;20036;-70
2021/06/23 05:16:47;;;;;;;4.75;2.72;;;13.50;96.30;;;;;;5054500;28;20016;-69
2021/06/23 05:19:13;;;;;;;3.65;2.78;;;13.50;96.30;;;;;;5054995;28;20064;-69
2021/06/23 05:21:39;;;;;;;4.22;2.70;;;13.50;96.20;;;;;;5054387;28;20107;-71
2021/06/23 05:24:05;;;;;;;5.97;3.30;;;13.60;96.20;;;;;;5053271;28;20469;-70
2021/06/23 05:26:31;;;;;;;4.57;2.50;;;13.60;96.20;;;;;;5052961;28;20387;-69
2021/06/23 05:28:57;;;;;;;3.90;2.40;;;13.60;96.20;;;;;;5053981;28;20538;-69
2021/06/23 05:31:23;;;;;;;5.38;2.53;;;13.60;96.10;;;;;;5054248;28;20484;-69
2021/06/23 05:33:48;;;;;;;5.57;2.72;;;13.60;96.00;;;;;;5054206;28;20052;-71
2021/06/23 05:36:14;;;;;;;3.08;2.33;;;13.60;96.00;;;;;;5053847;28;20111;-69
2021/06/23 05:38:39;;;;;;;4.20;2.40;;;13.60;96.00;;;;;;5054256;28;20115;-69
2021/06/23 05:41:05;;;;;;;3.97;2.42;;;13.70;96.00;;;;;;5054386;28;20107;-69
2021/06/23 05:43:30;;;;;;;3.85;2.70;;;13.70;95.90;;;;;;5052860;28;20048;-69
2021/06/23 05:45:56;;;;;;;5.95;3.05;;;13.70;95.90;;;;;;5048764;28;20037;-70
2021/06/23 05:48:21;;;;;;;5.07;3.05;;;13.70;95.80;;;;;;5038617;28;20026;-71
2021/06/23 05:50:47;;;;;;;5.13;2.60;;;13.80;95.80;;;;;;5034179;28;20026;-69
2021/06/23 05:53:13;;;;;;;4.93;2.42;;;13.80;95.80;;;;;;5052083;28;20477;-70
2021/06/23 05:55:40;;;;;;;4.70;2.90;;;13.80;95.70;;;;;;5053667;28;20028;-71
2021/06/23 05:58:06;;;;;;;4.30;2.17;;;13.80;95.70;;;;;;5051191;28;20528;-71
2021/06/23 06:00:32;;;;;;;3.95;2.50;;;13.90;95.70;;;;;;5053588;28;20135;-71
2021/06/23 06:02:57;;;;;;;5.32;1.98;;;13.90;95.70;;;;;;5053398;28;20146;-70
2021/06/23 06:05:23;;;;;;;3.25;2.17;;;14.00;95.90;;;;;;5052491;28;20032;-71
2021/06/23 06:07:52;;;;;;;5.15;2.17;;;14.00;95.60;;;;;;5053746;28;20035;-70
2021/06/23 06:10:17;;;;;;;4.25;1.98;;;14.10;95.60;;;;;;5053589;28;20485;-70
2021/06/23 06:12:43;;;;;;;6.18;2.63;;;14.20;95.50;;;;;;5053681;28;20032;-70
2021/06/23 06:15:09;;;;;;;3.70;2.35;;;14.30;95.40;;;;;;5053683;28;20021;-70
2021/06/23 06:17:35;;;;;;;3.95;2.05;;;14.30;95.30;;;;;;5053606;28;20033;-70
2021/06/23 06:20:02;;;;;;;5.55;2.67;;;14.40;95.30;;;;;;5013278;28;1184336;-70
2021/06/23 06:22:27;;;;;;;4.85;2.47;;;14.40;95.20;;;;;;5054730;28;20032;-70
2021/06/23 06:24:53;;;;;;;4.50;2.25;;;14.50;95.10;;;;;;5054683;28;20021;-70
2021/06/23 06:27:19;;;;;;;3.63;2.40;;;14.60;95.10;;;;;;5054505;28;20082;-70
2021/06/23 06:29:45;;;;;;;3.33;2.20;;;14.60;95.00;;;;;;5054489;28;20021;-70
2021/06/23 06:32:11;;;;;;;5.85;2.47;;;14.70;95.00;;;;;;5054428;28;20021;-70
2021/06/23 06:34:36;;;;;;;5.00;2.65;;;14.70;94.80;;;;;;5054201;28;20100;-70
2021/06/23 06:37:02;;;;;;;4.50;2.17;;;14.80;94.70;;;;;;5054111;28;20432;-70
2021/06/23 06:39:27;;;;;;;5.90;2.30;;;14.90;94.70;;;;;;5053906;28;20040;-70
2021/06/23 06:41:53;;;;;;;5.43;2.17;;;15.00;94.60;;;;;;5053671;28;20036;-70
2021/06/23 06:44:21;;;;;;;4.28;1.98;;;15.00;94.40;;;;;;5053815;28;20044;-70
2021/06/23 06:46:46;;;;;;;4.32;2.22;;;15.00;94.30;;;;;;5053363;28;20032;-70
2021/06/23 06:49:12;;;;;;;4.60;2.10;;;15.00;94.20;;;;;;5054154;28;20025;-70
2021/06/23 06:51:37;;;;;;;3.42;2.10;;;15.10;94.10;;;;;;5052488;28;20021;-70
2021/06/23 06:54:03;;;;;;;4.40;1.60;;;15.20;94.10;;;;;;5052465;28;20029;-69
2021/06/23 06:56:28;;;;;;;5.13;2.15;;;15.20;94.00;;;;;;5048423;28;20493;-69
2021/06/23 06:58:54;;;;;;;4.88;1.70;;;15.20;93.80;;;;;;5051609;28;20024;-68
2021/06/23 07:01:19;;;;;;;2.75;1.40;;;15.30;93.80;;;;;;5052702;28;20495;-68
2021/06/23 07:03:45;;;;;;;3.47;1.67;;;15.30;93.70;;;;;;5053215;28;20029;-68
2021/06/23 07:06:10;;;;;;;4.82;1.67;;;15.30;93.60;;;;;;5053198;28;20029;-67
2021/06/23 07:08:36;;;;;;;4.75;1.48;;;15.30;93.50;;;;;;5055761;28;20048;-69
2021/06/23 07:11:02;;;;;;;3.90;1.73;;;15.40;93.50;;;;;;5073063;28;20028;-69
2021/06/23 07:13:27;;;;;;;6.88;1.67;;;15.40;93.40;;;;;;5072354;28;20099;-70
2021/06/23 07:15:53;;;;;;;5.75;1.67;;;15.50;93.40;;;;;;5059576;28;20120;-68
2021/06/23 07:18:19;;;;;;;3.15;1.48;;;15.50;93.30;;;;;;5049260;28;20037;-68
2021/06/23 07:20:44;;;;;;;5.82;1.55;;;15.60;93.30;;;;;;5052982;28;20048;-70
2021/06/23 07:23:10;;;;;;;3.60;1.23;;;15.60;93.00;;;;;;5053009;28;20033;-69
2021/06/23 07:25:35;;;;;;;5.90;1.52;;;15.60;92.90;;;;;;5053143;28;20036;-68
2021/06/23 07:28:01;;;;;;;4.32;1.25;;;15.70;92.80;;;;;;5053461;28;20100;-69
2021/06/23 07:30:28;;;;;;;3.83;1.35;;;15.80;92.70;;;;;;5053519;28;20032;-69
2021/06/23 07:32:56;;;;;;;4.88;1.45;;;15.80;92.60;;;;;;5051118;28;20035;-69
2021/06/23 07:38:08;;;;;;;2.42;1.23;;;16.00;92.20;;;;;;5051127;28;20082;-69
2021/06/23 07:43:06;;;;;;;3.13;1.30;;;16.00;92.10;;;;;;5050467;28;20445;-70
2021/06/23 07:45:32;;;;;;;4.72;1.42;;;16.10;91.90;;;;;;5051103;28;20071;-71
2021/06/23 07:47:57;;;;;;;3.78;1.45;;;16.10;91.90;;;;;;5052971;28;20029;-71
2021/06/23 07:50:23;;;;;;;4.22;1.45;;;16.20;91.90;;;;;;5052562;28;20048;-70
2021/06/23 07:53:01;;;;;;;6.80;1.33;;;16.20;91.70;;;;;;5052400;28;20086;-68
2021/06/23 08:09:25;;;;;;;3.00;1.17;;;16.50;90.90;;;;;;5007116;28;20060;-69
2021/06/23 08:12:05;;;;;;;6.40;1.27;;;16.60;90.80;;;;;;5032836;28;20121;-69
2021/06/23 08:14:31;;;;;;;5.05;1.02;;;16.60;90.60;;;;;;5032624;28;20045;-71
2021/06/23 08:16:57;;;;;;;4.70;1.33;;;16.70;90.40;;;;;;5039737;28;20063;-69
2021/06/23 08:19:22;;;;;;;5.43;1.80;;;16.80;90.10;;;;;;5052398;28;20056;-69
2021/06/23 08:21:48;;;;;;;3.45;0.93;;;16.80;89.60;;;;;;5052596;28;20033;-69
2021/06/23 08:24:13;;;;;;;3.65;1.13;;;16.90;89.50;;;;;;5051362;28;20025;-69
2021/06/23 08:26:39;;;;;;;3.25;1.10;;;16.90;89.40;;;;;;5052383;28;20055;-70
2021/06/23 08:29:04;;;;;;;3.97;1.10;;;17.10;88.90;;;;;;5052509;28;20035;-69
2021/06/23 08:31:30;;;;;;;5.28;1.50;;;17.20;88.40;;;;;;5052484;28;20029;-69
2021/06/23 08:33:55;;;;;;;4.70;1.67;;;17.30;87.90;;;;;;5051134;28;20067;-70
2021/06/23 08:36:21;;;;;;;4.60;1.15;;;17.30;87.70;;;;;;5052560;28;20028;-68
2021/06/23 08:38:47;;;;;;;4.10;1.17;;;17.40;87.40;;;;;;5051264;28;20489;-69
2021/06/23 08:41:12;;;;;;;4.35;0.93;;;17.50;86.80;;;;;;5052483;28;20029;-68
2021/06/23 08:43:38;;;;;;;5.45;1.08;;;17.60;86.20;;;;;;5052184;28;20035;-69
2021/06/23 08:46:04;;;;;;;4.32;1.20;;;17.60;85.70;;;;;;5052346;28;20067;-69
2021/06/23 08:48:30;;;;;;;3.00;0.80;;;17.60;85.40;;;;;;5052305;28;20055;-70
2021/06/23 08:51:00;;;;;;;4.63;1.25;;;17.60;85.40;;;;;;5052339;28;20013;-69
2021/06/23 08:53:25;;;;;;;2.20;0.80;;;17.60;85.10;;;;;;5051054;28;20024;-68
2021/06/23 08:55:51;;;;;;;4.22;1.20;;;17.70;85.00;;;;;;5052179;28;20033;-70
2021/06/23 08:58:16;;;;;;;3.05;0.85;;;17.80;84.60;;;;;;5050989;28;20041;-70
2021/06/23 09:00:42;;;;;;;4.35;1.30;;;18.00;84.50;;;;;;5052338;28;20025;-70
2021/06/23 09:03:07;;;;;;;4.35;1.55;;;18.00;84.10;;;;;;5052215;28;20090;-69
2021/06/23 09:05:56;;;;;;;3.70;1.27;;;18.10;84.20;;;;;;5051910;28;20025;-70
2021/06/23 09:08:37;;;;;;;4.37;1.10;;;18.20;84.00;;;;;;5052433;28;20021;-69
2021/06/23 09:11:20;;;;;;;4.57;0.80;;;18.30;83.60;;;;;;5054804;28;20017;-69
2021/06/23 09:13:45;;;;;;;3.55;1.05;;;18.40;83.40;;;;;;5054557;28;20079;-70
2021/06/23 09:16:12;;;;;;;5.20;1.38;;;18.50;83.30;;;;;;5055726;28;20052;-69
2021/06/23 09:18:40;;;;;;;2.90;1.05;;;18.70;83.00;;;;;;5055626;28;20052;-69
2021/06/23 09:21:11;;;;;;;5.43;0.88;;;18.90;82.70;;;;;;5054120;28;20061;-70
2021/06/23 09:23:54;;;;;;;2.80;0.98;;;19.00;82.30;;;;;;5053186;28;20523;-70
2021/06/23 09:26:34;;;;;;;2.70;0.82;;;19.10;81.90;;;;;;5055398;28;20029;-68
2021/06/23 09:29:16;;;;;;;2.97;1.00;;;19.30;81.40;;;;;;5055694;28;20032;-69
2021/06/23 09:31:56;;;;;;;4.32;1.08;;;19.40;81.10;;;;;;5055373;28;20052;-69
2021/06/23 09:34:28;;;;;;;4.10;1.23;;;19.60;79.60;;;;;;5055017;28;20045;-69
2021/06/23 09:36:55;;;;;;;3.70;0.98;;;19.70;79.00;;;;;;5052675;28;20033;-70
2021/06/23 09:39:22;;;;;;;3.75;1.15;;;19.80;78.10;;;;;;5055555;28;20025;-70
2021/06/23 09:41:49;;;;;;;3.35;1.13;;;20.00;77.80;;;;;;5055312;28;20060;-69
2021/06/23 09:44:15;;;;;;;1.75;0.60;;;20.10;77.60;;;;;;5053948;28;20025;-69
2021/06/23 09:46:43;;;;;;;2.40;0.85;;;20.30;77.30;;;;;;5055351;28;20384;-69
2021/06/23 09:49:08;;;;;;;3.10;0.82;;;20.50;77.10;;;;;;5055197;28;20438;-69
2021/06/23 09:51:49;;;;;;;2.75;0.73;;;20.60;76.60;;;;;;5054908;28;20048;-69
2021/06/23 09:54:18;;;;;;;5.60;0.85;;;20.60;76.00;;;;;;5055218;28;20044;-69
2021/06/23 09:56:45;;;;;;;3.55;1.00;;;20.70;75.90;;;;;;5055332;28;20035;-69
2021/06/23 09:59:28;;;;;;;2.67;0.70;;;20.80;75.70;;;;;;5055084;28;20079;-70
2021/06/23 10:01:54;;;;;;;2.20;0.85;;;21.00;75.20;;;;;;5054979;28;20027;-69
2021/06/23 10:04:20;;;;;;;2.70;0.88;;;21.00;75.00;;;;;;5053702;28;20119;-70
2021/06/23 10:06:46;;;;;;;2.92;1.10;;;21.10;73.90;;;;;;5054627;28;20534;-70
2021/06/23 10:09:27;;;;;;;2.15;0.88;;;21.10;73.70;;;;;;5054740;28;20554;-70
2021/06/23 10:11:57;;;;;;;4.18;0.88;;;21.20;73.00;;;;;;5053240;28;20052;-69
2021/06/23 10:14:25;;;;;;;2.75;0.70;;;21.20;73.10;;;;;;5054454;28;20048;-69
2021/06/23 10:16:52;;;;;;;3.35;0.73;;;21.20;73.10;;;;;;5053993;28;20017;-69
2021/06/23 10:19:18;;;;;;;3.33;0.60;;;21.10;72.80;;;;;;5053522;28;20041;-69
2021/06/23 10:21:45;;;;;;;2.75;0.98;;;21.20;72.90;;;;;;5050188;28;20029;-69
2021/06/23 10:24:12;;;;;;;3.85;0.70;;;21.20;72.40;;;;;;5053069;28;20480;-69
2021/06/23 10:26:46;;;;;;;4.38;0.95;;;21.10;72.20;;;;;;5053086;28;20127;-70
2021/06/23 10:29:33;;;;;;;4.32;1.05;;;21.20;72.00;;;;;;5054088;28;20043;-69
2021/06/23 10:31:59;;;;;;;2.08;0.88;;;21.30;71.40;;;;;;5058845;28;20033;-70
2021/06/23 10:34:26;;;;;;;2.55;0.77;;;21.30;71.20;;;;;;5069227;28;20056;-70
2021/06/23 10:36:53;;;;;;;2.90;0.73;;;21.20;71.00;;;;;;5061930;28;20017;-69
2021/06/23 10:39:20;;;;;;;2.28;0.63;;;21.30;71.10;;;;;;5053510;28;20104;-70
2021/06/23 10:41:52;;;;;;;2.42;0.70;;;21.40;70.90;;;;;;5041834;28;20033;-69
2021/06/23 10:44:35;;;;;;;1.42;0.60;;;21.50;70.30;;;;;;5033068;28;20044;-69
2021/06/23 10:47:03;;;;;;;2.90;0.85;;;21.70;70.20;;;;;;5050617;28;20063;-70
2021/06/23 10:49:46;;;;;;;2.77;0.80;;;21.80;69.60;;;;;;5053593;28;20013;-70
2021/06/23 10:52:20;;;;;;;4.57;0.90;;;22.00;68.90;;;;;;5053113;28;20073;-69
2021/06/23 10:54:53;;;;;;;2.22;0.70;;;22.10;68.60;;;;;;5050370;28;20017;-70
2021/06/23 10:57:31;;;;;;;2.83;1.00;;;22.20;68.20;;;;;;5029408;28;20047;-68
2021/06/23 10:59:59;;;;;;;6.35;1.10;;;22.40;67.70;;;;;;5029025;28;20036;-69
2021/06/23 11:02:28;;;;;;;2.60;0.70;;;22.40;67.10;;;;;;5070924;28;20060;-69
2021/06/23 11:05:01;;;;;;;2.38;0.80;;;22.50;67.10;;;;;;5073819;28;20024;-69
2021/06/23 11:07:39;;;;;;;2.53;0.70;;;22.50;66.80;;;;;;5073204;28;20021;-69
2021/06/23 11:12:49;;;;;;;3.97;0.52;;;22.70;65.70;;;;;;5060232;28;20025;-70
2021/06/23 11:15:21;;;;;;;3.60;0.80;;;22.80;65.70;;;;;;5070586;28;20020;-69
2021/06/23 11:17:49;;;;;;;3.40;0.70;;;22.80;64.90;;;;;;5060850;28;20036;-69
2021/06/23 11:20:37;;;;;;;3.38;0.75;;;22.80;64.60;;;;;;5058772;28;20045;-69
2021/06/23 11:23:03;;;;;;;1.67;0.70;;;22.90;64.60;;;;;;5052899;28;20389;-69
2021/06/23 11:25:32;;;;;;;4.28;0.77;;;23.00;64.00;;;;;;5052824;28;20025;-68
2021/06/23 11:28:12;;;;;;;2.22;0.65;;;23.10;63.50;;;;;;5052885;28;20100;-68
2021/06/23 11:31:03;;;;;;;2.97;0.80;;;23.40;62.80;;;;;;5050859;28;20040;-69
2021/06/23 11:33:29;;;;;;;2.88;0.60;;;23.60;62.70;;;;;;5032848;28;20075;-68
2021/06/23 11:35:56;;;;;;;2.92;0.60;;;23.80;62.60;;;;;;5043455;28;20017;-69
2021/06/23 11:38:22;;;;;;;2.00;0.70;;;24.10;62.10;;;;;;5052605;28;20016;-69
2021/06/23 11:40:49;;;;;;;3.05;0.50;;;24.30;61.60;;;;;;5056507;28;20032;-69
2021/06/23 11:43:14;;;;;;;4.32;1.45;;;24.60;61.10;;;;;;5055857;28;20021;-69
2021/06/23 11:45:40;;;;;;;1.77;0.70;;;24.70;59.60;;;;;;5052744;28;20031;-69
2021/06/23 11:48:06;;;;;;;2.72;0.85;;;24.90;58.70;;;;;;5069652;28;20028;-69
2021/06/23 11:50:32;;;;;;;2.08;0.60;;;24.80;58.40;;;;;;5072211;28;20013;-70
2021/06/23 11:52:58;;;;;;;1.70;0.60;;;24.80;58.30;;;;;;5072658;28;20033;-70
2021/06/23 11:55:24;;;;;;;4.15;0.90;;;24.90;58.50;;;;;;5072658;28;20387;-69
2021/06/23 11:57:54;;;;;;;1.60;0.50;;;24.80;58.60;;;;;;5071869;28;20119;-70
2021/06/23 12:00:22;;;;;;;2.42;0.70;;;24.90;58.60;;;;;;5073087;28;20025;-70
2021/06/23 12:02:47;;;;;;;4.72;1.00;;;24.90;57.90;;;;;;5072913;28;20032;-69
2021/06/23 12:05:13;;;;;;;3.45;0.73;;;25.10;58.00;;;;;;5072858;28;20507;-69
2021/06/23 12:07:38;;;;;;;2.25;0.70;;;25.20;57.90;;;;;;5072476;28;20024;-70
2021/06/23 12:10:06;;;;;;;2.58;0.73;;;25.30;57.70;;;;;;5072757;28;20032;-70
2021/06/23 12:12:32;;;;;;;2.47;0.82;;;25.40;57.60;;;;;;5072508;28;20032;-70
2021/06/23 12:14:57;;;;;;;4.28;0.93;;;25.50;57.30;;;;;;5072860;28;20025;-70
2021/06/23 12:17:23;;;;;;;2.25;0.65;;;25.50;57.40;;;;;;5060597;28;20025;-69
2021/06/23 12:19:52;;;;;;;3.72;0.90;;;25.50;57.00;;;;;;5051240;28;20520;-69
2021/06/23 12:22:18;;;;;;;5.75;1.35;;;25.50;56.90;;;;;;5057854;28;20063;-68
2021/06/23 12:24:43;;;;;;;3.92;0.80;;;25.30;55.90;;;;;;5060077;28;20040;-69
2021/06/23 12:27:09;;;;;;;3.85;0.77;;;25.10;56.70;;;;;;5068353;28;20028;-70
2021/06/23 12:29:36;;;;;;;3.75;0.73;;;25.00;56.90;;;;;;5068220;28;20017;-69
2021/06/23 12:32:02;;;;;;;1.92;0.80;;;25.00;56.90;;;;;;5049606;28;20411;-69
2021/06/23 12:34:28;;;;;;;3.30;1.00;;;25.00;57.20;;;;;;5051491;28;20437;-69
2021/06/23 12:36:55;;;;;;;3.33;0.85;;;24.90;56.80;;;;;;5051659;28;20059;-69
2021/06/23 12:39:20;;;;;;;3.65;0.90;;;24.80;56.80;;;;;;5051313;28;20029;-70
2021/06/23 12:41:46;;;;;;;2.53;0.70;;;24.70;56.80;;;;;;5050440;28;20431;-69
2021/06/23 12:44:11;;;;;;;2.47;0.63;;;24.60;57.10;;;;;;5051801;28;20025;-69
2021/06/23 12:46:38;;;;;;;3.33;0.60;;;24.70;57.30;;;;;;5055055;28;20377;-69
2021/06/23 12:49:04;;;;;;;3.40;0.70;;;24.70;57.10;;;;;;5054364;28;20082;-70
2021/06/23 12:51:29;;;;;;;0.90;0.60;;;24.70;57.00;;;;;;5053943;28;20111;-69
2021/06/23 12:53:55;;;;;;;2.38;0.90;;;24.80;57.00;;;;;;5055203;28;20029;-68
2021/06/23 12:56:21;;;;;;;3.30;0.70;;;24.60;56.60;;;;;;5055586;28;20084;-69
2021/06/23 12:58:46;;;;;;;2.65;0.60;;;24.70;56.70;;;;;;5057913;28;20021;-68
2021/06/23 13:01:12;;;;;;;1.80;0.70;;;24.90;56.70;;;;;;5055286;28;20420;-68
2021/06/23 13:03:38;;;;;;;1.77;0.70;;;24.90;56.60;;;;;;5054980;28;20064;-68
2021/06/23 13:06:04;;;;;;;2.47;0.88;;;24.90;56.50;;;;;;5055509;28;20380;-70
2021/06/23 13:08:31;;;;;;;1.42;0.70;;;24.90;56.70;;;;;;5055411;28;20487;-69
2021/06/23 13:10:56;;;;;;;2.42;0.70;;;24.90;56.80;;;;;;5055388;28;20024;-69